Time;durP1;ratioP1;P1;durP2;ratioP2;P2;SDS_P1;SDS_P2;PMS_P1;PMS_P2;Temp;Humidity;BMP_temperature;BMP_pressure;BME280_temperature;BME280_humidity;BME280_pressure;Samples;Min_cycle;Max_cycle;Signal;HPM_P1;HPM_P2
2023/11/24 00:01:26;;;;;;;39.23;37.23;;;21.80;90.10;;;;;;4992015;28;20174;-71
2023/11/24 00:03:54;;;;;;;36.40;34.40;;;22.00;90.50;;;;;;4993174;28;20691;-72
2023/11/24 00:06:22;;;;;;;38.60;36.50;;;22.20;90.60;;;;;;4967930;28;20549;-71
2023/11/24 00:08:49;;;;;;;39.97;37.67;;;22.20;89.90;;;;;;4972635;28;20189;-70
2023/11/24 00:11:21;;;;;;;34.00;32.10;;;22.30;90.10;;;;;;4977035;28;20216;-73
2023/11/24 00:13:48;;;;;;;34.63;32.63;;;22.20;89.70;;;;;;4982424;28;20193;-69
2023/11/24 00:16:15;;;;;;;32.53;30.53;;;22.30;89.70;;;;;;4991026;28;20316;-70
2023/11/24 00:18:43;;;;;;;31.50;29.40;;;22.30;90.10;;;;;;4986049;28;20193;-69
2023/11/24 00:21:10;;;;;;;29.63;28.03;;;22.40;90.10;;;;;;4986286;28;20559;-72
2023/11/24 00:23:38;;;;;;;30.07;28.37;;;22.30;89.40;;;;;;4982940;28;20217;-71
2023/11/24 00:26:05;;;;;;;27.53;25.60;;;22.40;89.80;;;;;;4988155;28;20190;-71
2023/11/24 00:28:36;;;;;;;21.93;20.67;;;22.40;89.80;;;;;;4990034;28;20185;-66
2023/11/24 00:31:05;;;;;;;19.63;18.33;;;22.40;89.40;;;;;;4988820;28;21471;-68
2023/11/24 00:33:34;;;;;;;19.97;18.77;;;22.60;89.40;;;;;;4987247;28;20190;-70
2023/11/24 00:36:02;;;;;;;16.73;15.53;;;22.60;89.10;;;;;;4990906;28;20270;-70
2023/11/24 00:38:29;;;;;;;15.70;14.67;;;22.50;88.30;;;;;;4991386;28;20209;-72
2023/11/24 00:40:58;;;;;;;14.67;13.77;;;22.60;88.50;;;;;;4982687;28;20190;-72
2023/11/24 00:43:26;;;;;;;14.43;13.23;;;22.50;88.10;;;;;;4985359;28;20221;-70
2023/11/24 00:45:53;;;;;;;17.20;15.83;;;22.50;88.50;;;;;;4987627;28;20296;-71
2023/11/24 00:48:24;;;;;;;16.13;15.00;;;22.60;88.90;;;;;;4990990;28;20258;-70
2023/11/24 00:50:51;;;;;;;17.47;15.87;;;22.30;88.40;;;;;;4990397;28;20200;-70
2023/11/24 00:53:18;;;;;;;16.97;15.83;;;22.30;89.30;;;;;;4991353;28;20185;-69
2023/11/24 00:55:46;;;;;;;17.20;15.77;;;22.30;89.70;;;;;;4991250;28;20201;-71
2023/11/24 00:58:13;;;;;;;17.93;16.43;;;22.40;89.60;;;;;;4991097;28;20182;-71
2023/11/24 01:00:40;;;;;;;20.97;19.53;;;22.60;89.80;;;;;;4991709;28;20216;-71
2023/11/24 01:03:08;;;;;;;20.07;18.57;;;22.80;89.60;;;;;;4991087;28;20217;-69
2023/11/24 01:05:36;;;;;;;20.37;19.07;;;22.80;89.20;;;;;;4991039;28;20250;-72
2023/11/24 01:08:05;;;;;;;18.40;17.07;;;22.80;88.90;;;;;;4991483;28;20190;-70
2023/11/24 01:10:32;;;;;;;16.70;14.17;;;22.80;88.80;;;;;;4990802;28;20193;-71
2023/11/24 01:12:59;;;;;;;13.30;12.30;;;22.80;88.40;;;;;;4992142;28;20190;-73
2023/11/24 01:15:27;;;;;;;11.70;10.87;;;22.80;88.00;;;;;;4990165;28;20621;-69
2023/11/24 01:17:54;;;;;;;10.57;9.77;;;22.80;87.90;;;;;;4972985;28;20253;-70
2023/11/24 01:20:22;;;;;;;9.50;8.70;;;23.00;87.70;;;;;;4991874;28;20741;-69
2023/11/24 01:22:49;;;;;;;10.13;9.20;;;23.00;86.90;;;;;;4988702;28;20233;-68
2023/11/24 01:25:17;;;;;;;9.53;8.70;;;23.10;86.90;;;;;;4989271;28;20197;-67
2023/11/24 01:27:44;;;;;;;9.50;8.30;;;23.30;86.90;;;;;;4990509;28;20182;-67
2023/11/24 01:30:12;;;;;;;9.77;7.80;;;23.30;86.70;;;;;;4990271;28;20265;-67
2023/11/24 01:32:40;;;;;;;8.53;7.53;;;23.50;86.50;;;;;;4990266;28;20186;-68
2023/11/24 01:35:09;;;;;;;6.93;6.33;;;23.70;85.70;;;;;;4991073;28;20185;-68
2023/11/24 01:37:36;;;;;;;4.73;4.33;;;23.80;85.50;;;;;;4985213;28;20194;-68
2023/11/24 01:40:05;;;;;;;6.20;4.77;;;23.80;83.50;;;;;;4991488;28;20182;-68
2023/11/24 01:42:37;;;;;;;4.10;3.70;;;24.00;84.90;;;;;;4985342;28;20626;-67
2023/11/24 01:45:09;;;;;;;7.43;4.27;;;23.90;83.10;;;;;;4971681;28;20202;-67
2023/11/24 01:47:37;;;;;;;5.63;4.00;;;24.00;84.10;;;;;;4990314;28;20552;-67
2023/11/24 01:50:05;;;;;;;6.60;3.33;;;24.10;83.90;;;;;;4991559;28;20186;-67
2023/11/24 01:52:34;;;;;;;4.93;3.20;;;24.10;83.50;;;;;;4992457;28;20194;-68
2023/11/24 01:55:06;;;;;;;4.73;2.90;;;24.30;83.30;;;;;;4989725;28;20716;-68
2023/11/24 01:57:34;;;;;;;5.50;3.17;;;24.30;81.80;;;;;;4987814;28;20558;-68
2023/11/24 02:00:04;;;;;;;7.53;2.90;;;24.30;81.10;;;;;;4993709;28;20193;-67
2023/11/24 02:02:31;;;;;;;2.93;1.90;;;24.40;80.90;;;;;;4995938;28;20205;-67
2023/11/24 02:04:59;;;;;;;5.33;2.00;;;24.30;80.70;;;;;;4992607;28;20179;-68
2023/11/24 02:07:26;;;;;;;4.97;2.17;;;24.30;81.00;;;;;;4993580;28;20174;-67
2023/11/24 02:09:54;;;;;;;3.20;1.60;;;24.30;80.60;;;;;;4993955;28;20185;-67
2023/11/24 02:12:22;;;;;;;3.13;1.60;;;24.20;79.50;;;;;;4978464;28;20455;-67
2023/11/24 02:14:49;;;;;;;2.93;2.20;;;24.20;79.40;;;;;;4994835;28;20265;-66
2023/11/24 02:17:17;;;;;;;5.83;1.63;;;24.20;79.50;;;;;;4994166;28;20536;-67
2023/11/24 02:19:46;;;;;;;2.83;1.60;;;24.10;78.70;;;;;;4993261;28;20237;-67
2023/11/24 02:22:13;;;;;;;5.27;1.73;;;24.10;79.30;;;;;;4994569;28;20224;-66
2023/11/24 02:24:40;;;;;;;5.63;1.60;;;24.20;79.30;;;;;;4991765;28;20225;-67
2023/11/24 02:27:08;;;;;;;4.50;1.70;;;24.30;79.30;;;;;;4991287;28;20182;-69
2023/11/24 02:29:35;;;;;;;5.13;2.00;;;24.40;79.10;;;;;;4983685;28;20194;-67
2023/11/24 02:32:02;;;;;;;4.20;1.80;;;24.60;78.20;;;;;;4971678;28;20276;-68
2023/11/24 02:34:31;;;;;;;4.40;1.60;;;24.70;77.30;;;;;;4995156;28;20186;-68
2023/11/24 02:36:58;;;;;;;4.90;1.70;;;24.80;76.60;;;;;;4987832;28;20190;-66
2023/11/24 02:39:26;;;;;;;3.83;1.90;;;24.80;75.80;;;;;;4988119;28;20253;-65
2023/11/24 02:41:53;;;;;;;3.57;1.73;;;24.90;76.20;;;;;;4983439;28;20186;-65
2023/11/24 02:44:20;;;;;;;4.03;1.80;;;24.80;75.70;;;;;;4992312;28;20229;-66
2023/11/24 02:46:48;;;;;;;2.90;1.37;;;24.80;75.40;;;;;;4992952;28;20821;-68
2023/11/24 02:49:16;;;;;;;2.20;1.10;;;24.90;76.00;;;;;;4990647;28;20247;-65
2023/11/24 02:51:43;;;;;;;3.13;1.20;;;24.80;74.50;;;;;;4993153;28;20272;-67
2023/11/24 02:54:11;;;;;;;3.97;1.57;;;24.80;74.70;;;;;;4990249;28;20574;-66
2023/11/24 02:56:38;;;;;;;4.80;1.60;;;24.60;75.90;;;;;;4990568;28;20201;-69
2023/11/24 02:59:05;;;;;;;5.37;1.70;;;24.70;76.40;;;;;;4991976;28;20217;-65
2023/11/24 03:01:33;;;;;;;6.10;1.93;;;24.50;77.00;;;;;;4993558;28;20186;-68
2023/11/24 03:04:01;;;;;;;4.33;1.23;;;24.50;77.00;;;;;;4993174;28;20210;-69
2023/11/24 03:06:28;;;;;;;4.47;1.20;;;24.50;77.40;;;;;;4993098;28;20205;-69
2023/11/24 03:08:57;;;;;;;5.27;1.70;;;24.40;77.20;;;;;;4991803;28;20636;-64
2023/11/24 03:11:25;;;;;;;5.77;1.80;;;24.50;77.30;;;;;;4991433;28;20284;-71
2023/11/24 03:13:52;;;;;;;7.73;1.53;;;24.40;76.50;;;;;;4992617;28;20189;-66
2023/11/24 03:16:20;;;;;;;2.07;1.50;;;24.40;75.90;;;;;;4990622;28;20194;-64
2023/11/24 03:18:48;;;;;;;4.57;1.40;;;24.40;74.60;;;;;;4993057;28;20198;-70
2023/11/24 03:21:15;;;;;;;6.10;1.43;;;24.30;74.20;;;;;;4993487;28;20197;-66
2023/11/24 03:23:42;;;;;;;4.03;1.37;;;24.30;74.10;;;;;;4992024;28;20210;-66
2023/11/24 03:26:13;;;;;;;3.27;1.23;;;24.30;74.90;;;;;;4992550;28;20217;-68
2023/11/24 03:28:40;;;;;;;4.33;1.40;;;24.20;75.50;;;;;;4992400;28;20205;-71
2023/11/24 03:31:07;;;;;;;2.73;1.47;;;24.20;76.20;;;;;;4991133;28;20690;-64
2023/11/24 03:33:35;;;;;;;4.97;1.60;;;24.20;76.20;;;;;;4992040;28;20221;-64
2023/11/24 03:36:03;;;;;;;2.50;1.40;;;24.30;76.60;;;;;;4992995;28;20553;-66
2023/11/24 03:38:31;;;;;;;7.37;1.87;;;24.30;76.60;;;;;;4992471;28;20193;-69
2023/11/24 03:40:58;;;;;;;4.27;1.60;;;24.30;76.30;;;;;;4992368;28;20182;-66
2023/11/24 03:43:25;;;;;;;4.13;1.50;;;24.30;77.20;;;;;;4992011;28;20221;-69
2023/11/24 03:45:54;;;;;;;4.90;1.67;;;24.30;77.50;;;;;;4994120;28;20731;-73
2023/11/24 03:48:21;;;;;;;8.07;1.70;;;24.20;77.60;;;;;;4993158;28;20188;-69
2023/11/24 03:50:52;;;;;;;4.43;1.70;;;24.00;78.10;;;;;;4991470;28;20185;-71
2023/11/24 03:53:20;;;;;;;5.67;1.70;;;23.90;78.40;;;;;;4990504;28;20186;-69
2023/11/24 03:55:47;;;;;;;6.00;1.87;;;23.80;78.90;;;;;;4992247;28;20596;-70
2023/11/24 03:58:15;;;;;;;3.73;1.77;;;23.80;79.50;;;;;;4991168;28;20194;-65
2023/11/24 04:00:43;;;;;;;4.70;1.83;;;23.80;79.50;;;;;;4987059;28;20682;-64
2023/11/24 04:03:10;;;;;;;3.40;2.07;;;23.80;79.30;;;;;;4991677;28;20241;-68
2023/11/24 04:05:37;;;;;;;4.30;1.90;;;23.90;79.80;;;;;;4989967;28;20190;-64
2023/11/24 04:08:05;;;;;;;8.03;2.23;;;24.00;79.40;;;;;;4991108;28;20182;-68
2023/11/24 04:10:32;;;;;;;4.03;1.70;;;23.80;79.30;;;;;;4991331;28;20280;-68
2023/11/24 04:12:59;;;;;;;3.50;1.80;;;23.80;79.20;;;;;;4992352;28;20217;-67
2023/11/24 04:15:27;;;;;;;6.03;2.07;;;23.80;79.40;;;;;;4990964;28;20185;-70
2023/11/24 04:17:54;;;;;;;4.33;2.03;;;23.80;79.20;;;;;;4988666;28;20190;-69
2023/11/24 04:20:21;;;;;;;8.10;2.07;;;23.70;79.40;;;;;;4988863;28;20229;-71
2023/11/24 04:22:49;;;;;;;7.57;2.30;;;23.70;80.20;;;;;;4990362;28;20312;-68
2023/11/24 04:25:16;;;;;;;8.03;2.00;;;23.80;80.10;;;;;;4974702;28;20519;-71
2023/11/24 04:27:44;;;;;;;4.43;1.90;;;23.70;80.20;;;;;;4992775;28;20322;-69
2023/11/24 04:30:11;;;;;;;5.07;1.87;;;23.50;80.10;;;;;;4972955;28;20629;-64
2023/11/24 04:32:39;;;;;;;5.23;1.83;;;23.40;80.10;;;;;;4990993;28;20233;-71
2023/11/24 04:35:07;;;;;;;3.27;1.40;;;23.40;79.80;;;;;;4991344;28;20189;-64
2023/11/24 04:37:35;;;;;;;2.80;1.37;;;23.50;79.20;;;;;;4987717;28;20943;-66
2023/11/24 04:40:03;;;;;;;3.00;1.50;;;23.30;78.50;;;;;;4973166;28;20551;-64
2023/11/24 04:42:30;;;;;;;3.07;1.70;;;23.30;79.30;;;;;;4990057;28;20193;-66
2023/11/24 04:44:58;;;;;;;3.20;1.70;;;23.30;79.60;;;;;;4985054;28;20210;-72
2023/11/24 04:47:25;;;;;;;3.87;2.17;;;23.30;79.80;;;;;;4992376;28;20545;-71
2023/11/24 04:49:53;;;;;;;4.00;1.40;;;23.50;79.70;;;;;;4988993;28;20185;-70
2023/11/24 04:52:20;;;;;;;5.30;1.70;;;23.50;79.60;;;;;;4992060;28;20251;-71
2023/11/24 04:54:47;;;;;;;4.03;1.77;;;23.50;80.00;;;;;;4991503;28;20182;-71
2023/11/24 04:57:15;;;;;;;4.00;1.60;;;23.50;80.00;;;;;;4973839;28;20270;-71
2023/11/24 04:59:42;;;;;;;4.50;1.57;;;23.50;78.90;;;;;;4991344;28;20577;-71
2023/11/24 05:02:09;;;;;;;2.97;1.40;;;23.30;79.20;;;;;;4990505;28;20178;-70
2023/11/24 05:04:37;;;;;;;3.13;1.57;;;23.40;79.50;;;;;;4989640;28;20217;-68
2023/11/24 05:07:05;;;;;;;3.43;1.50;;;23.50;79.30;;;;;;4988056;28;20186;-70
2023/11/24 05:09:32;;;;;;;4.30;1.50;;;23.40;79.50;;;;;;4992275;28;20185;-71
2023/11/24 05:12:00;;;;;;;1.87;1.57;;;23.40;80.10;;;;;;4990126;28;20184;-72
2023/11/24 05:14:27;;;;;;;6.23;1.70;;;23.30;80.50;;;;;;4991048;28;20183;-70
2023/11/24 05:16:54;;;;;;;7.20;2.30;;;23.30;80.90;;;;;;4991061;28;20178;-70
2023/11/24 05:19:22;;;;;;;2.43;1.70;;;23.20;81.20;;;;;;4992373;28;20227;-70
2023/11/24 05:21:49;;;;;;;3.63;1.90;;;23.20;82.20;;;;;;4991453;28;20197;-71
2023/11/24 05:24:16;;;;;;;4.33;2.10;;;23.20;82.00;;;;;;4989676;28;20218;-71
2023/11/24 05:26:44;;;;;;;4.37;2.50;;;23.20;82.20;;;;;;4992092;28;20190;-69
2023/11/24 05:29:11;;;;;;;2.93;2.00;;;23.30;82.10;;;;;;4989195;28;20225;-71
2023/11/24 05:31:38;;;;;;;3.27;2.43;;;23.20;81.50;;;;;;4981618;28;20183;-70
2023/11/24 05:34:06;;;;;;;5.30;2.80;;;23.10;81.60;;;;;;4989745;28;20293;-69
2023/11/24 05:36:33;;;;;;;4.43;2.50;;;23.00;81.20;;;;;;4989684;28;20190;-72
2023/11/24 05:39:01;;;;;;;2.57;2.00;;;23.00;81.50;;;;;;4994975;28;20645;-71
2023/11/24 05:41:28;;;;;;;5.30;2.50;;;22.90;81.60;;;;;;4994858;28;20221;-71
2023/11/24 05:43:57;;;;;;;4.03;2.10;;;22.90;81.50;;;;;;4992916;28;20269;-69
2023/11/24 05:46:24;;;;;;;6.20;2.40;;;22.90;82.10;;;;;;4977438;28;20181;-70
2023/11/24 05:48:52;;;;;;;3.30;2.57;;;22.90;82.40;;;;;;4986020;28;20221;-70
2023/11/24 05:51:19;;;;;;;5.57;2.60;;;23.00;82.30;;;;;;4995871;28;20170;-68
2023/11/24 05:53:46;;;;;;;3.87;2.73;;;23.00;82.40;;;;;;4996004;28;20553;-71
2023/11/24 05:56:14;;;;;;;3.13;2.70;;;23.00;82.20;;;;;;4982006;28;20210;-70
2023/11/24 05:58:41;;;;;;;3.93;2.90;;;22.90;82.50;;;;;;4995568;28;20182;-70
2023/11/24 06:01:09;;;;;;;7.80;2.83;;;22.80;83.10;;;;;;4995155;28;20332;-71
2023/11/24 06:03:36;;;;;;;4.77;3.43;;;22.80;83.50;;;;;;4996278;28;20660;-69
2023/11/24 06:06:04;;;;;;;4.70;3.53;;;22.80;83.60;;;;;;4993824;28;20182;-70
2023/11/24 06:08:31;;;;;;;3.97;3.23;;;22.70;83.70;;;;;;4982323;28;20270;-65
2023/11/24 06:10:58;;;;;;;6.10;4.37;;;22.80;84.20;;;;;;4989445;28;20178;-70
2023/11/24 06:13:26;;;;;;;5.03;4.10;;;22.80;84.20;;;;;;4991158;28;20201;-67
2023/11/24 06:15:54;;;;;;;5.53;3.80;;;22.80;83.90;;;;;;4995689;28;20595;-69
2023/11/24 06:18:22;;;;;;;4.17;3.77;;;22.70;83.80;;;;;;4992236;28;20170;-70
2023/11/24 06:20:49;;;;;;;7.63;4.30;;;22.70;84.30;;;;;;4995760;28;20233;-69
2023/11/24 06:23:16;;;;;;;5.63;4.40;;;22.70;84.70;;;;;;4994982;28;20289;-69
2023/11/24 06:25:44;;;;;;;6.87;4.83;;;22.60;84.50;;;;;;4999157;28;20276;-70
2023/11/24 06:28:11;;;;;;;5.97;4.50;;;22.70;84.70;;;;;;5004381;28;20580;-68
2023/11/24 06:30:38;;;;;;;5.97;4.67;;;22.60;85.00;;;;;;4995451;28;20260;-70
2023/11/24 06:33:06;;;;;;;7.30;6.37;;;22.60;85.30;;;;;;4987711;28;20196;-69
2023/11/24 06:35:33;;;;;;;7.20;6.40;;;22.50;86.10;;;;;;4993330;28;20260;-70
2023/11/24 06:38:00;;;;;;;8.47;7.67;;;22.20;86.60;;;;;;4991370;28;20272;-67
2023/11/24 06:40:27;;;;;;;11.73;10.60;;;22.10;87.00;;;;;;4990009;28;20635;-67
2023/11/24 06:42:55;;;;;;;12.90;11.70;;;21.90;87.50;;;;;;4999590;28;20204;-67
2023/11/24 06:45:22;;;;;;;18.47;14.40;;;21.80;87.90;;;;;;4992832;28;20190;-70
2023/11/24 06:47:49;;;;;;;19.80;18.23;;;21.80;88.50;;;;;;4995115;28;20204;-71
2023/11/24 06:50:17;;;;;;;22.63;20.73;;;21.80;89.20;;;;;;4982104;28;20194;-65
2023/11/24 06:52:45;;;;;;;27.13;25.03;;;21.60;89.00;;;;;;4994792;28;20601;-70
2023/11/24 06:55:12;;;;;;;30.30;27.73;;;21.60;89.30;;;;;;4992018;28;20557;-68
2023/11/24 06:57:39;;;;;;;29.00;27.03;;;21.60;89.30;;;;;;4992986;28;20186;-71
2023/11/24 07:00:07;;;;;;;30.90;27.90;;;21.30;89.00;;;;;;4990861;28;20186;-68
2023/11/24 07:02:36;;;;;;;29.00;26.87;;;21.30;89.00;;;;;;4993540;28;20241;-71
2023/11/24 07:05:03;;;;;;;31.40;29.03;;;21.20;88.70;;;;;;4994826;28;20225;-65
2023/11/24 07:07:30;;;;;;;33.80;31.00;;;21.30;89.00;;;;;;4994569;28;20541;-67
2023/11/24 07:09:58;;;;;;;32.23;29.93;;;21.30;89.10;;;;;;4992681;28;20193;-66
2023/11/24 07:12:25;;;;;;;34.20;31.00;;;21.30;89.10;;;;;;4991321;28;20197;-71
2023/11/24 07:14:53;;;;;;;36.53;33.43;;;21.30;89.00;;;;;;4990732;28;20190;-71
2023/11/24 07:17:20;;;;;;;34.33;31.57;;;21.30;89.10;;;;;;4992591;28;20209;-69
2023/11/24 07:19:48;;;;;;;34.23;31.87;;;21.30;88.90;;;;;;4993980;28;20218;-66
2023/11/24 07:22:15;;;;;;;35.10;31.80;;;21.20;88.70;;;;;;4993377;28;20264;-68
2023/11/24 07:24:44;;;;;;;38.47;34.97;;;21.20;88.80;;;;;;4992684;28;20309;-68
2023/11/24 07:27:13;;;;;;;36.73;33.87;;;21.30;88.90;;;;;;4996491;28;20213;-68
2023/11/24 07:29:40;;;;;;;34.53;31.87;;;21.30;88.90;;;;;;4993879;28;20194;-70
2023/11/24 07:32:10;;;;;;;35.47;32.57;;;21.20;88.40;;;;;;4992244;28;20269;-68
2023/11/24 07:34:37;;;;;;;36.33;33.23;;;21.20;88.70;;;;;;5007152;28;20227;-65
2023/11/24 07:37:06;;;;;;;40.90;37.33;;;21.20;88.60;;;;;;4998425;28;20213;-68
2023/11/24 07:39:34;;;;;;;41.83;38.43;;;21.20;88.50;;;;;;4998305;28;20229;-67
2023/11/24 07:42:02;;;;;;;42.30;38.70;;;21.20;89.00;;;;;;4995612;28;20197;-65
2023/11/24 07:44:33;;;;;;;42.90;39.20;;;21.30;88.80;;;;;;5004059;28;20206;-70
2023/11/24 07:47:01;;;;;;;44.03;40.27;;;21.20;88.80;;;;;;4996711;28;20174;-70
2023/11/24 07:49:28;;;;;;;40.13;36.93;;;21.10;88.80;;;;;;4993645;28;20177;-66
2023/11/24 07:51:55;;;;;;;40.70;37.43;;;21.10;88.80;;;;;;5000731;28;20185;-67
2023/11/24 07:54:23;;;;;;;39.50;36.17;;;21.10;88.90;;;;;;5000933;28;20179;-72
2023/11/24 07:56:50;;;;;;;38.40;35.10;;;21.00;88.70;;;;;;5004628;28;20193;-72
2023/11/24 07:59:17;;;;;;;40.07;36.33;;;21.00;88.80;;;;;;4994351;28;20185;-72
2023/11/24 08:01:45;;;;;;;40.30;37.37;;;21.00;88.60;;;;;;4993565;28;20282;-72
2023/11/24 08:04:12;;;;;;;40.27;36.33;;;21.00;88.60;;;;;;4998393;28;20224;-73
2023/11/24 08:06:39;;;;;;;39.77;35.97;;;21.00;88.30;;;;;;4991039;28;20182;-72
2023/11/24 08:09:08;;;;;;;39.37;36.60;;;20.90;88.50;;;;;;4989133;28;20188;-66
2023/11/24 08:11:35;;;;;;;39.17;35.53;;;20.90;88.50;;;;;;4979241;28;20178;-72
2023/11/24 08:14:03;;;;;;;42.77;39.37;;;20.90;88.70;;;;;;4993887;28;20544;-72
2023/11/24 08:16:30;;;;;;;40.57;36.83;;;21.00;88.90;;;;;;4993737;28;20621;-72
2023/11/24 08:18:57;;;;;;;41.93;38.57;;;20.90;88.70;;;;;;5008436;28;20233;-70
2023/11/24 08:21:25;;;;;;;41.43;37.83;;;20.90;89.00;;;;;;4990907;28;20248;-70
2023/11/24 08:23:52;;;;;;;38.23;35.03;;;20.90;88.60;;;;;;4993128;28;20206;-72
2023/11/24 08:26:21;;;;;;;40.53;37.23;;;20.90;88.70;;;;;;4993662;28;20636;-72
2023/11/24 08:28:49;;;;;;;41.50;38.20;;;20.80;88.50;;;;;;4982927;28;20187;-71
2023/11/24 08:31:20;;;;;;;37.90;34.70;;;20.80;88.40;;;;;;4986079;28;20213;-72
2023/11/24 08:33:51;;;;;;;32.90;29.60;;;20.80;87.90;;;;;;4990776;28;20240;-71
2023/11/24 08:36:18;;;;;;;31.37;28.20;;;20.80;87.70;;;;;;4990585;28;20178;-71
2023/11/24 08:38:46;;;;;;;30.93;28.33;;;20.70;87.40;;;;;;4981770;28;20178;-69
2023/11/24 08:41:16;;;;;;;33.37;30.43;;;20.80;87.60;;;;;;4985513;28;20174;-67
2023/11/24 08:43:47;;;;;;;31.93;28.80;;;20.80;87.70;;;;;;4989226;28;20221;-66
2023/11/24 08:46:15;;;;;;;31.73;29.40;;;20.80;87.70;;;;;;4990972;28;20186;-72
2023/11/24 08:48:42;;;;;;;32.70;29.37;;;20.80;87.60;;;;;;4996874;28;20190;-72
2023/11/24 08:51:10;;;;;;;34.13;31.30;;;20.80;87.90;;;;;;4986584;28;20190;-68
2023/11/24 08:53:39;;;;;;;37.17;33.73;;;20.80;87.90;;;;;;4992802;28;20190;-68
2023/11/24 08:56:10;;;;;;;34.07;31.07;;;20.80;88.10;;;;;;4992437;28;20189;-70
2023/11/24 08:58:37;;;;;;;29.70;26.97;;;20.70;87.80;;;;;;4988734;28;20200;-66
2023/11/24 09:01:06;;;;;;;30.17;27.70;;;20.60;87.70;;;;;;4987557;28;20707;-71
2023/11/24 09:03:34;;;;;;;31.10;28.30;;;20.60;87.80;;;;;;4975730;28;20217;-66
2023/11/24 09:06:03;;;;;;;27.97;25.33;;;20.50;87.30;;;;;;4992934;28;20190;-67
2023/11/24 09:08:30;;;;;;;29.97;27.47;;;20.50;87.50;;;;;;4994460;28;20261;-71
2023/11/24 09:10:58;;;;;;;31.80;29.10;;;20.50;87.70;;;;;;4992216;28;20191;-70
2023/11/24 09:13:26;;;;;;;27.37;25.03;;;20.40;87.50;;;;;;4992995;28;20178;-69
2023/11/24 09:15:54;;;;;;;34.80;31.57;;;20.40;87.40;;;;;;4992045;28;20273;-65
2023/11/24 09:18:21;;;;;;;36.73;33.93;;;20.40;88.00;;;;;;4992880;28;20250;-66
2023/11/24 09:20:49;;;;;;;40.23;36.83;;;20.40;88.10;;;;;;4992986;28;20239;-67
2023/11/24 09:23:16;;;;;;;42.73;39.13;;;20.30;88.20;;;;;;4993277;28;20209;-69
2023/11/24 09:25:43;;;;;;;44.17;40.03;;;20.30;88.60;;;;;;4988364;28;20213;-69
2023/11/24 09:28:11;;;;;;;44.77;41.20;;;20.40;88.90;;;;;;4986572;28;20265;-70
2023/11/24 09:30:38;;;;;;;51.90;47.80;;;20.30;89.10;;;;;;5000594;28;20273;-69
2023/11/24 09:33:07;;;;;;;58.80;54.30;;;20.30;89.40;;;;;;4991053;28;20233;-69
2023/11/24 09:35:35;;;;;;;57.73;53.37;;;20.30;89.70;;;;;;5003810;28;20173;-68
2023/11/24 09:38:02;;;;;;;65.47;60.43;;;20.30;89.90;;;;;;4992342;28;20228;-66
2023/11/24 09:40:31;;;;;;;69.30;64.40;;;20.30;90.30;;;;;;4992404;28;20181;-68
2023/11/24 09:43:03;;;;;;;69.27;64.73;;;20.20;90.30;;;;;;4997635;28;20200;-66
2023/11/24 09:45:31;;;;;;;74.67;69.30;;;20.30;90.60;;;;;;4992733;28;20221;-68
2023/11/24 09:47:59;;;;;;;85.10;79.23;;;20.20;90.70;;;;;;4991669;28;20178;-66
2023/11/24 09:50:28;;;;;;;86.30;80.97;;;20.20;90.90;;;;;;4997892;28;20204;-66
2023/11/24 09:52:58;;;;;;;90.20;84.77;;;20.10;91.00;;;;;;4992289;28;20193;-69
2023/11/24 09:55:30;;;;;;;90.03;84.27;;;20.10;91.20;;;;;;4981488;28;20193;-68
2023/11/24 09:57:57;;;;;;;98.53;92.27;;;20.10;91.30;;;;;;4992654;28;20242;-67
2023/11/24 10:00:25;;;;;;;108.67;101.20;;;20.00;91.50;;;;;;4993147;28;20197;-67
2023/11/24 10:02:52;;;;;;;114.50;107.63;;;20.10;91.60;;;;;;4991588;28;20186;-66
2023/11/24 10:05:21;;;;;;;120.93;113.50;;;20.00;91.60;;;;;;4992829;28;20209;-69
2023/11/24 10:07:52;;;;;;;122.57;115.37;;;20.00;91.80;;;;;;4992826;28;20189;-69
2023/11/24 10:10:25;;;;;;;119.03;111.77;;;20.00;91.90;;;;;;4991558;28;20186;-69
2023/11/24 10:13:01;;;;;;;120.47;113.53;;;20.00;91.90;;;;;;4987580;28;20186;-69
2023/11/24 10:15:30;;;;;;;121.50;114.53;;;19.80;91.70;;;;;;4990475;28;20645;-70
2023/11/24 10:17:57;;;;;;;117.03;110.10;;;19.80;91.70;;;;;;4990206;28;20240;-68
2023/11/24 10:20:28;;;;;;;117.57;111.00;;;19.60;91.60;;;;;;4974825;28;20658;-70
2023/11/24 10:22:59;;;;;;;102.27;96.43;;;19.60;91.50;;;;;;4992938;28;20261;-70
2023/11/24 10:25:29;;;;;;;102.90;96.70;;;19.50;91.10;;;;;;4997461;28;20251;-70
2023/11/24 10:28:04;;;;;;;106.43;100.57;;;19.40;91.10;;;;;;4993746;28;20190;-69
2023/11/24 10:30:33;;;;;;;102.37;96.43;;;19.40;91.10;;;;;;4992049;28;20304;-70
2023/11/24 10:33:06;;;;;;;113.67;107.37;;;19.40;91.10;;;;;;4993816;28;20244;-69
2023/11/24 10:35:33;;;;;;;118.37;111.73;;;19.40;91.20;;;;;;4992488;28;20200;-70
2023/11/24 10:38:02;;;;;;;119.47;112.77;;;19.40;91.30;;;;;;4991231;28;20182;-69
2023/11/24 10:40:32;;;;;;;125.70;118.33;;;19.30;91.30;;;;;;4990017;28;20195;-69
2023/11/24 10:43:00;;;;;;;127.13;119.80;;;19.30;91.50;;;;;;4990645;28;20194;-70
2023/11/24 10:45:30;;;;;;;133.30;126.23;;;19.30;91.50;;;;;;4992312;28;20186;-71
2023/11/24 10:48:09;;;;;;;144.13;136.30;;;19.30;91.60;;;;;;4980701;28;20265;-67
2023/11/24 10:51:00;;;;;;;146.63;138.40;;;19.30;91.70;;;;;;4989897;28;20189;-69
2023/11/24 10:53:35;;;;;;;147.60;139.13;;;19.30;91.80;;;;;;4992241;28;20641;-70
2023/11/24 10:56:04;;;;;;;159.53;150.67;;;19.30;92.00;;;;;;4993441;28;20181;-69
2023/11/24 10:58:36;;;;;;;172.77;162.97;;;19.20;92.00;;;;;;4992309;28;20220;-69
2023/11/24 11:01:03;;;;;;;169.40;159.87;;;19.30;92.20;;;;;;4994957;28;20596;-70
2023/11/24 11:03:33;;;;;;;181.03;171.03;;;19.20;92.10;;;;;;4992278;28;20249;-70
2023/11/24 11:06:20;;;;;;;183.03;173.23;;;19.30;92.30;;;;;;4997520;28;20182;-70
2023/11/24 11:08:57;;;;;;;184.33;174.27;;;19.20;92.40;;;;;;4983603;28;20261;-70
2023/11/24 11:11:37;;;;;;;196.43;185.70;;;19.30;92.40;;;;;;4994327;28;20628;-71
2023/11/24 11:14:05;;;;;;;211.43;200.20;;;19.20;92.60;;;;;;4995201;28;20213;-70
2023/11/24 11:16:34;;;;;;;204.33;193.27;;;19.30;92.70;;;;;;4996520;28;20190;-69
2023/11/24 11:19:31;;;;;;;212.40;201.17;;;19.20;92.70;;;;;;5002692;28;20723;-69
2023/11/24 11:22:00;;;;;;;221.33;208.90;;;19.20;92.70;;;;;;4996873;28;20265;-71
2023/11/24 11:24:31;;;;;;;215.93;204.53;;;19.20;92.80;;;;;;4993075;28;20221;-70
2023/11/24 11:26:58;;;;;;;229.93;217.43;;;19.20;92.80;;;;;;4997439;28;20571;-68
2023/11/24 11:29:30;;;;;;;236.30;224.63;;;19.20;92.90;;;;;;4996996;28;20170;-69
2023/11/24 11:31:57;;;;;;;239.23;227.50;;;19.20;93.00;;;;;;4990434;28;20181;-68
2023/11/24 11:34:31;;;;;;;242.07;229.30;;;19.20;92.90;;;;;;4993590;28;20178;-69
2023/11/24 11:37:11;;;;;;;246.80;233.40;;;19.20;93.00;;;;;;4997683;28;20292;-70
2023/11/24 11:39:59;;;;;;;260.53;247.43;;;19.10;93.00;;;;;;4986198;28;20636;-71
2023/11/24 11:42:53;;;;;;;259.13;245.73;;;19.20;93.10;;;;;;4986472;28;20178;-69
2023/11/24 11:45:29;;;;;;;272.63;258.83;;;19.10;93.00;;;;;;4983891;28;20201;-69
2023/11/24 11:48:02;;;;;;;279.10;265.30;;;19.10;93.10;;;;;;4993033;28;20185;-69
2023/11/24 11:50:33;;;;;;;262.80;249.77;;;19.10;93.00;;;;;;4997390;28;20302;-69
2023/11/24 11:53:05;;;;;;;256.63;243.87;;;19.00;93.00;;;;;;4991760;28;20214;-69
2023/11/24 11:55:32;;;;;;;244.43;232.00;;;18.90;93.10;;;;;;4993092;28;20190;-68
2023/11/24 11:58:00;;;;;;;252.67;240.20;;;18.90;93.00;;;;;;4993273;28;20196;-70
2023/11/24 12:00:30;;;;;;;235.57;223.60;;;18.80;92.90;;;;;;4992876;28;20214;-72
2023/11/24 12:02:59;;;;;;;237.20;225.37;;;18.80;92.70;;;;;;4994639;28;20687;-68
2023/11/24 12:05:26;;;;;;;240.70;228.90;;;18.80;92.90;;;;;;5000911;28;20576;-70
2023/11/24 12:07:55;;;;;;;237.97;225.57;;;18.80;92.80;;;;;;4991964;28;20185;-70
2023/11/24 12:10:24;;;;;;;244.57;232.57;;;18.80;92.70;;;;;;4991078;28;20272;-71
2023/11/24 12:12:52;;;;;;;240.60;228.33;;;18.80;92.60;;;;;;4991136;28;20213;-71
2023/11/24 12:15:19;;;;;;;236.97;225.23;;;18.80;92.70;;;;;;4993605;28;20193;-70
2023/11/24 12:17:48;;;;;;;243.17;231.00;;;18.80;92.70;;;;;;4991506;28;20596;-71
2023/11/24 12:20:17;;;;;;;251.80;239.43;;;18.80;92.60;;;;;;4992256;28;20230;-69
2023/11/24 12:22:45;;;;;;;260.70;247.60;;;18.80;92.80;;;;;;4989569;28;20190;-70
2023/11/24 12:25:13;;;;;;;257.73;244.80;;;18.90;92.80;;;;;;4991508;28;20221;-70
2023/11/24 12:27:43;;;;;;;272.07;258.37;;;18.90;92.80;;;;;;4992148;28;20290;-72
2023/11/24 12:30:12;;;;;;;269.80;256.20;;;18.90;92.90;;;;;;4997007;28;20228;-71
2023/11/24 12:32:44;;;;;;;282.97;268.97;;;18.90;92.90;;;;;;4979568;28;20181;-68
2023/11/24 12:35:12;;;;;;;290.47;275.37;;;18.90;93.00;;;;;;4996823;28;20767;-67
2023/11/24 12:37:40;;;;;;;300.53;285.07;;;19.00;93.00;;;;;;4993569;28;20657;-67